sensor_id;sensor_type;location;lat;lon;timestamp;pressure;altitude;pressure_sealevel;temperature;humidity
47883;BME280;37739;50.350;7.578;2022-07-23T00:01:00;99813.91;;;21.87;58.92
47883;BME280;37739;50.350;7.578;2022-07-23T00:03:26;99819.19;;;21.81;59.19
47883;BME280;37739;50.350;7.578;2022-07-23T00:05:51;99827.09;;;21.70;60.17
47883;BME280;37739;50.350;7.578;2022-07-23T00:08:16;99839.47;;;21.50;60.37
47883;BME280;37739;50.350;7.578;2022-07-23T00:10:44;99834.19;;;21.58;60.28
47883;BME280;37739;50.350;7.578;2022-07-23T00:13:09;99825.59;;;21.38;61.15
47883;BME280;37739;50.350;7.578;2022-07-23T00:15:37;99829.06;;;21.36;61.53
47883;BME280;37739;50.350;7.578;2022-07-23T00:18:02;99832.50;;;21.50;60.45
47883;BME280;37739;50.350;7.578;2022-07-23T00:20:30;99831.53;;;21.65;59.98
47883;BME280;37739;50.350;7.578;2022-07-23T00:22:55;99827.22;;;21.56;60.60
47883;BME280;37739;50.350;7.578;2022-07-23T00:25:22;99819.47;;;21.46;61.14
47883;BME280;37739;50.350;7.578;2022-07-23T00:27:50;99817.75;;;21.38;61.08
47883;BME280;37739;50.350;7.578;2022-07-23T00:30:15;99819.47;;;21.43;60.89
47883;BME280;37739;50.350;7.578;2022-07-23T00:35:11;99841.13;;;21.57;60.45
47883;BME280;37739;50.350;7.578;2022-07-23T00:37:37;99849.00;;;21.51;60.73
47883;BME280;37739;50.350;7.578;2022-07-23T00:40:05;99843.94;;;21.23;62.20
47883;BME280;37739;50.350;7.578;2022-07-23T00:42:33;99837.84;;;21.27;61.96
47883;BME280;37739;50.350;7.578;2022-07-23T00:44:58;99834.25;;;21.44;61.04
47883;BME280;37739;50.350;7.578;2022-07-23T00:47:26;99836.94;;;21.33;61.69
47883;BME280;37739;50.350;7.578;2022-07-23T00:49:56;99830.06;;;21.18;62.20
47883;BME280;37739;50.350;7.578;2022-07-23T00:52:24;99829.91;;;21.38;61.27
47883;BME280;37739;50.350;7.578;2022-07-23T00:54:50;99825.53;;;21.48;61.19
47883;BME280;37739;50.350;7.578;2022-07-23T00:57:18;99820.31;;;21.43;61.28
47883;BME280;37739;50.350;7.578;2022-07-23T00:59:44;99823.84;;;21.39;61.34
47883;BME280;37739;50.350;7.578;2022-07-23T01:02:09;99836.13;;;21.23;62.36
47883;BME280;37739;50.350;7.578;2022-07-23T01:04:37;99843.19;;;21.03;62.31
47883;BME280;37739;50.350;7.578;2022-07-23T01:07:03;99835.31;;;21.12;62.29
47883;BME280;37739;50.350;7.578;2022-07-23T01:09:28;99833.56;;;21.12;62.11
47883;BME280;37739;50.350;7.578;2022-07-23T01:11:54;99813.56;;;21.13;61.98
47883;BME280;37739;50.350;7.578;2022-07-23T01:14:21;99798.78;;;21.12;61.95
47883;BME280;37739;50.350;7.578;2022-07-23T01:16:48;99801.56;;;20.81;62.80
47883;BME280;37739;50.350;7.578;2022-07-23T01:19:16;99813.81;;;20.64;63.79
47883;BME280;37739;50.350;7.578;2022-07-23T01:21:48;99826.84;;;20.57;63.71
47883;BME280;37739;50.350;7.578;2022-07-23T01:24:17;99825.03;;;20.76;62.36
47883;BME280;37739;50.350;7.578;2022-07-23T01:26:46;99820.75;;;20.68;62.58
47883;BME280;37739;50.350;7.578;2022-07-23T01:29:14;99811.19;;;20.70;62.20
47883;BME280;37739;50.350;7.578;2022-07-23T01:31:43;99804.19;;;20.79;61.77
47883;BME280;37739;50.350;7.578;2022-07-23T01:34:10;99802.44;;;20.82;62.12
47883;BME280;37739;50.350;7.578;2022-07-23T01:36:36;99800.72;;;20.79;61.74
47883;BME280;37739;50.350;7.578;2022-07-23T01:39:03;99807.69;;;20.75;61.68
47883;BME280;37739;50.350;7.578;2022-07-23T01:41:32;99812.06;;;20.67;62.00
47883;BME280;37739;50.350;7.578;2022-07-23T01:43:57;99812.97;;;20.48;62.84
47883;BME280;37739;50.350;7.578;2022-07-23T01:46:22;99819.88;;;20.58;62.74
47883;BME280;37739;50.350;7.578;2022-07-23T01:48:50;99804.22;;;20.72;61.75
47883;BME280;37739;50.350;7.578;2022-07-23T01:51:23;99805.88;;;20.82;61.45
47883;BME280;37739;50.350;7.578;2022-07-23T01:53:48;99797.25;;;20.78;61.64
47883;BME280;37739;50.350;7.578;2022-07-23T01:56:15;99798.09;;;20.79;61.33
47883;BME280;37739;50.350;7.578;2022-07-23T01:58:41;99793.81;;;20.61;62.15
47883;BME280;37739;50.350;7.578;2022-07-23T02:01:06;99785.09;;;20.70;61.64
47883;BME280;37739;50.350;7.578;2022-07-23T02:03:31;99785.19;;;20.42;62.57
47883;BME280;37739;50.350;7.578;2022-07-23T02:05:59;99799.09;;;20.44;62.54
47883;BME280;37739;50.350;7.578;2022-07-23T02:08:24;99798.16;;;20.61;61.63
47883;BME280;37739;50.350;7.578;2022-07-23T02:10:50;99799.91;;;20.55;62.08
47883;BME280;37739;50.350;7.578;2022-07-23T02:13:16;99799.97;;;20.35;62.44
47883;BME280;37739;50.350;7.578;2022-07-23T02:15:42;99801.72;;;20.24;62.74
47883;BME280;37739;50.350;7.578;2022-07-23T02:18:09;99797.44;;;20.09;64.20
47883;BME280;37739;50.350;7.578;2022-07-23T02:20:35;99795.66;;;20.13;63.67
47883;BME280;37739;50.350;7.578;2022-07-23T02:23:03;99798.31;;;20.00;63.94
47883;BME280;37739;50.350;7.578;2022-07-23T02:25:28;99792.19;;;20.11;63.29
47883;BME280;37739;50.350;7.578;2022-07-23T02:27:56;99793.13;;;20.04;63.09
47883;BME280;37739;50.350;7.578;2022-07-23T02:30:24;99793.94;;;20.07;63.64
47883;BME280;37739;50.350;7.578;2022-07-23T02:32:50;99791.31;;;20.23;62.99
47883;BME280;37739;50.350;7.578;2022-07-23T02:35:17;99793.94;;;20.16;62.85
47883;BME280;37739;50.350;7.578;2022-07-23T02:37:42;99793.06;;;20.27;62.87
47883;BME280;37739;50.350;7.578;2022-07-23T02:40:08;99799.13;;;20.16;62.59
47883;BME280;37739;50.350;7.578;2022-07-23T02:42:36;99796.56;;;20.13;62.59
47883;BME280;37739;50.350;7.578;2022-07-23T02:45:02;99796.56;;;19.99;63.05
47883;BME280;37739;50.350;7.578;2022-07-23T02:47:29;99800.88;;;20.20;62.30
47883;BME280;37739;50.350;7.578;2022-07-23T02:49:57;99804.31;;;20.23;61.72
47883;BME280;37739;50.350;7.578;2022-07-23T02:52:22;99806.06;;;20.20;62.15
47883;BME280;37739;50.350;7.578;2022-07-23T02:54:47;99801.75;;;20.09;62.33
47883;BME280;37739;50.350;7.578;2022-07-23T02:57:15;99809.59;;;20.12;62.31
47883;BME280;37739;50.350;7.578;2022-07-23T02:59:40;99807.84;;;20.15;62.04
47883;BME280;37739;50.350;7.578;2022-07-23T03:02:09;99806.09;;;20.27;61.73
47883;BME280;37739;50.350;7.578;2022-07-23T03:04:37;99802.59;;;20.28;61.90
47883;BME280;37739;50.350;7.578;2022-07-23T03:07:05;99801.78;;;20.03;62.62
47883;BME280;37739;50.350;7.578;2022-07-23T03:09:30;99805.25;;;19.80;63.56
47883;BME280;37739;50.350;7.578;2022-07-23T03:11:55;99795.69;;;19.70;63.66
47883;BME280;37739;50.350;7.578;2022-07-23T03:14:23;99796.59;;;19.76;62.75
47883;BME280;37739;50.350;7.578;2022-07-23T03:16:49;99803.56;;;19.73;62.89
47883;BME280;37739;50.350;7.578;2022-07-23T03:19:15;99810.47;;;19.63;63.42
47883;BME280;37739;50.350;7.578;2022-07-23T03:21:40;99807.88;;;19.80;62.79
47883;BME280;37739;50.350;7.578;2022-07-23T03:24:09;99808.72;;;20.07;61.67
47883;BME280;37739;50.350;7.578;2022-07-23T03:26:39;99809.56;;;20.21;61.06
47883;BME280;37739;50.350;7.578;2022-07-23T03:29:07;99809.53;;;20.26;61.11
47883;BME280;37739;50.350;7.578;2022-07-23T03:31:32;99810.44;;;20.25;61.06
47883;BME280;37739;50.350;7.578;2022-07-23T03:34:00;99805.22;;;20.23;61.27
47883;BME280;37739;50.350;7.578;2022-07-23T03:36:26;99811.25;;;20.30;60.84
47883;BME280;37739;50.350;7.578;2022-07-23T03:38:54;99807.81;;;20.25;61.06
47883;BME280;37739;50.350;7.578;2022-07-23T03:41:20;99804.34;;;20.19;61.18
47883;BME280;37739;50.350;7.578;2022-07-23T03:43:45;99796.59;;;19.87;62.34
47883;BME280;37739;50.350;7.578;2022-07-23T03:46:11;99809.56;;;19.64;62.87
47883;BME280;37739;50.350;7.578;2022-07-23T03:48:37;99806.97;;;19.49;63.59
47883;BME280;37739;50.350;7.578;2022-07-23T03:51:02;99811.28;;;19.30;63.99
47883;BME280;37739;50.350;7.578;2022-07-23T03:53:28;99812.16;;;19.46;63.37
47883;BME280;37739;50.350;7.578;2022-07-23T03:55:53;99812.19;;;19.44;63.65
47883;BME280;37739;50.350;7.578;2022-07-23T03:58:21;99813.88;;;19.31;64.56
47883;BME280;37739;50.350;7.578;2022-07-23T04:00:47;99824.28;;;19.31;64.27
47883;BME280;37739;50.350;7.578;2022-07-23T04:03:12;99831.22;;;19.28;64.51
47883;BME280;37739;50.350;7.578;2022-07-23T04:05:39;99823.41;;;19.20;64.80
47883;BME280;37739;50.350;7.578;2022-07-23T04:08:07;99824.28;;;19.23;64.56
47883;BME280;37739;50.350;7.578;2022-07-23T04:10:32;99831.22;;;19.23;64.40
47883;BME280;37739;50.350;7.578;2022-07-23T04:13:02;99838.13;;;19.13;65.19
47883;BME280;37739;50.350;7.578;2022-07-23T04:15:28;99841.59;;;19.14;64.63
47883;BME280;37739;50.350;7.578;2022-07-23T04:17:55;99846.84;;;19.29;64.34
47883;BME280;37739;50.350;7.578;2022-07-23T04:20:21;99847.69;;;19.19;65.03
47883;BME280;37739;50.350;7.578;2022-07-23T04:22:46;99849.41;;;19.09;64.37
47883;BME280;37739;50.350;7.578;2022-07-23T04:25:11;99843.38;;;19.29;64.24
47883;BME280;37739;50.350;7.578;2022-07-23T04:27:41;99843.41;;;19.44;63.46
47883;BME280;37739;50.350;7.578;2022-07-23T04:30:07;99848.63;;;19.66;62.79
47883;BME280;37739;50.350;7.578;2022-07-23T04:32:33;99851.25;;;19.76;62.40
47883;BME280;37739;50.350;7.578;2022-07-23T04:35:00;99855.59;;;19.77;62.86
47883;BME280;37739;50.350;7.578;2022-07-23T04:37:25;99857.34;;;19.77;62.80
47883;BME280;37739;50.350;7.578;2022-07-23T04:39:51;99860.81;;;19.73;62.94
47883;BME280;37739;50.350;7.578;2022-07-23T04:42:18;99853.81;;;19.55;63.41
47883;BME280;37739;50.350;7.578;2022-07-23T04:44:44;99858.13;;;19.47;63.65
47883;BME280;37739;50.350;7.578;2022-07-23T04:47:09;99854.66;;;19.38;64.66
47883;BME280;37739;50.350;7.578;2022-07-23T04:49:38;99861.56;;;19.29;65.05
47883;BME280;37739;50.350;7.578;2022-07-23T04:52:06;99858.91;;;19.15;65.25
47883;BME280;37739;50.350;7.578;2022-07-23T04:54:36;99866.75;;;19.22;64.63
47883;BME280;37739;50.350;7.578;2022-07-23T04:57:01;99871.09;;;19.31;64.89
47883;BME280;37739;50.350;7.578;2022-07-23T04:59:31;99863.31;;;19.37;64.93
47883;BME280;37739;50.350;7.578;2022-07-23T05:01:56;99870.25;;;19.34;65.21
47883;BME280;37739;50.350;7.578;2022-07-23T05:04:22;99864.22;;;19.44;64.65
47883;BME280;37739;50.350;7.578;2022-07-23T05:06:47;99874.59;;;19.41;64.87
47883;BME280;37739;50.350;7.578;2022-07-23T05:09:15;99872.88;;;19.38;64.93
47883;BME280;37739;50.350;7.578;2022-07-23T05:11:40;99873.72;;;19.45;64.66
47883;BME280;37739;50.350;7.578;2022-07-23T05:14:05;99873.72;;;19.33;65.70
47883;BME280;37739;50.350;7.578;2022-07-23T05:16:31;99874.56;;;19.38;64.96
47883;BME280;37739;50.350;7.578;2022-07-23T05:18:57;99873.75;;;19.53;64.36
47883;BME280;37739;50.350;7.578;2022-07-23T05:21:22;99872.03;;;19.64;64.58
47883;BME280;37739;50.350;7.578;2022-07-23T05:23:47;99872.06;;;19.76;63.93
47883;BME280;37739;50.350;7.578;2022-07-23T05:26:12;99868.59;;;19.99;63.53
47883;BME280;37739;50.350;7.578;2022-07-23T05:28:43;99878.16;;;19.88;63.89
47883;BME280;37739;50.350;7.578;2022-07-23T05:31:10;99883.38;;;19.91;63.48
47883;BME280;37739;50.350;7.578;2022-07-23T05:33:38;99882.50;;;19.83;63.92
47883;BME280;37739;50.350;7.578;2022-07-23T05:36:06;99883.38;;;19.86;63.75
47883;BME280;37739;50.350;7.578;2022-07-23T05:38:32;99884.22;;;19.74;64.04
47883;BME280;37739;50.350;7.578;2022-07-23T05:40:57;99887.69;;;19.92;63.40
47883;BME280;37739;50.350;7.578;2022-07-23T05:43:23;99885.06;;;20.23;62.69
47883;BME280;37739;50.350;7.578;2022-07-23T05:45:53;99898.09;;;20.35;62.42
47883;BME280;37739;50.350;7.578;2022-07-23T05:48:19;99898.13;;;20.19;62.44
47883;BME280;37739;50.350;7.578;2022-07-23T05:50:47;99898.09;;;20.23;62.52
47883;BME280;37739;50.350;7.578;2022-07-23T05:53:13;99906.78;;;20.40;62.02
47883;BME280;37739;50.350;7.578;2022-07-23T05:55:38;99908.50;;;20.67;61.51
47883;BME280;37739;50.350;7.578;2022-07-23T05:58:06;99911.13;;;20.39;61.87
47883;BME280;37739;50.350;7.578;2022-07-23T06:00:33;99924.13;;;20.56;61.56
47883;BME280;37739;50.350;7.578;2022-07-23T06:02:58;99922.41;;;20.60;60.92
47883;BME280;37739;50.350;7.578;2022-07-23T06:05:24;99919.81;;;20.43;61.51
47883;BME280;37739;50.350;7.578;2022-07-23T06:07:52;99915.47;;;20.20;61.94
47883;BME280;37739;50.350;7.578;2022-07-23T06:10:18;99914.59;;;20.35;61.83
47883;BME280;37739;50.350;7.578;2022-07-23T06:12:46;99921.53;;;20.38;61.58
47883;BME280;37739;50.350;7.578;2022-07-23T06:15:11;99914.63;;;20.29;62.18
47883;BME280;37739;50.350;7.578;2022-07-23T06:17:38;99915.47;;;20.48;61.25
47883;BME280;37739;50.350;7.578;2022-07-23T06:20:07;99913.69;;;20.78;60.72
47883;BME280;37739;50.350;7.578;2022-07-23T06:22:33;99908.50;;;20.75;60.66
47883;BME280;37739;50.350;7.578;2022-07-23T06:24:58;99920.56;;;21.04;60.21
47883;BME280;37739;50.350;7.578;2022-07-23T06:27:24;99920.59;;;20.96;59.57
47883;BME280;37739;50.350;7.578;2022-07-23T06:29:49;99923.19;;;21.02;59.89
47883;BME280;37739;50.350;7.578;2022-07-23T06:32:14;99918.88;;;20.84;60.11
47883;BME280;37739;50.350;7.578;2022-07-23T06:34:47;99922.34;;;20.89;59.63
47883;BME280;37739;50.350;7.578;2022-07-23T06:37:15;99917.16;;;20.86;59.52
47883;BME280;37739;50.350;7.578;2022-07-23T06:39:40;99926.63;;;21.03;59.33
47883;BME280;37739;50.350;7.578;2022-07-23T06:42:05;99935.28;;;21.15;59.19
47883;BME280;37739;50.350;7.578;2022-07-23T06:44:31;99929.97;;;21.34;58.52
47883;BME280;37739;50.350;7.578;2022-07-23T06:46:56;99932.63;;;21.28;58.51
47883;BME280;37739;50.350;7.578;2022-07-23T06:49:21;99933.50;;;21.25;58.76
47883;BME280;37739;50.350;7.578;2022-07-23T06:51:51;99937.78;;;21.40;58.34
47883;BME280;37739;50.350;7.578;2022-07-23T06:54:18;99943.91;;;21.33;58.31
47883;BME280;37739;50.350;7.578;2022-07-23T06:56:46;99948.25;;;21.38;57.98
47883;BME280;37739;50.350;7.578;2022-07-23T06:59:11;99956.94;;;21.37;58.18
47883;BME280;37739;50.350;7.578;2022-07-23T07:01:37;99951.84;;;21.10;58.28
47883;BME280;37739;50.350;7.578;2022-07-23T07:04:03;99954.44;;;21.05;58.64
47883;BME280;37739;50.350;7.578;2022-07-23T07:06:30;99958.75;;;21.22;58.52
47883;BME280;37739;50.350;7.578;2022-07-23T07:08:55;99963.88;;;21.42;57.69
47883;BME280;37739;50.350;7.578;2022-07-23T07:11:21;99966.50;;;21.46;57.78
47883;BME280;37739;50.350;7.578;2022-07-23T07:13:48;99975.19;;;21.45;57.21
47883;BME280;37739;50.350;7.578;2022-07-23T07:16:16;99973.44;;;21.52;57.38
47883;BME280;37739;50.350;7.578;2022-07-23T07:18:42;99977.81;;;21.47;57.57
47883;BME280;37739;50.350;7.578;2022-07-23T07:21:09;99979.47;;;21.55;57.57
47883;BME280;37739;50.350;7.578;2022-07-23T07:23:35;99981.16;;;21.70;56.83
47883;BME280;37739;50.350;7.578;2022-07-23T07:26:05;99989.06;;;21.53;57.02
47883;BME280;37739;50.350;7.578;2022-07-23T07:28:30;99979.53;;;21.54;57.08
47883;BME280;37739;50.350;7.578;2022-07-23T07:30:58;99980.34;;;21.61;57.01
47883;BME280;37739;50.350;7.578;2022-07-23T07:33:23;99992.41;;;21.83;56.58
47883;BME280;37739;50.350;7.578;2022-07-23T07:35:48;99987.94;;;22.02;55.95
47883;BME280;37739;50.350;7.578;2022-07-23T07:38:14;99982.56;;;22.21;55.63
47883;BME280;37739;50.350;7.578;2022-07-23T07:40:39;99986.03;;;22.29;55.07
47883;BME280;37739;50.350;7.578;2022-07-23T07:43:05;99987.69;;;22.39;55.18
47883;BME280;37739;50.350;7.578;2022-07-23T07:45:31;99986.84;;;22.34;55.32
47883;BME280;37739;50.350;7.578;2022-07-23T07:47:58;99992.00;;;22.40;55.41
47883;BME280;37739;50.350;7.578;2022-07-23T07:50:26;99997.22;;;22.42;55.28
47883;BME280;37739;50.350;7.578;2022-07-23T07:52:53;99999.06;;;22.33;55.37
47883;BME280;37739;50.350;7.578;2022-07-23T07:55:19;100005.84;;;22.54;54.95
47883;BME280;37739;50.350;7.578;2022-07-23T07:57:46;99995.50;;;22.42;54.74
47883;BME280;37739;50.350;7.578;2022-07-23T08:00:14;99998.94;;;22.49;55.14
47883;BME280;37739;50.350;7.578;2022-07-23T08:02:49;100001.47;;;22.58;54.42
47883;BME280;37739;50.350;7.578;2022-07-23T08:05:19;100001.41;;;22.66;54.35
47883;BME280;37739;50.350;7.578;2022-07-23T08:07:45;100000.38;;;22.81;54.34
47883;BME280;37739;50.350;7.578;2022-07-23T08:10:11;99997.50;;;23.07;53.58
47883;BME280;37739;50.350;7.578;2022-07-23T08:12:41;99997.34;;;23.21;53.08
47883;BME280;37739;50.350;7.578;2022-07-23T08:15:09;99994.72;;;23.21;52.90
47883;BME280;37739;50.350;7.578;2022-07-23T08:17:34;99999.03;;;23.26;52.41
47883;BME280;37739;50.350;7.578;2022-07-23T08:20:04;100000.13;;;23.10;52.38
47883;BME280;37739;50.350;7.578;2022-07-23T08:22:56;99994.81;;;23.13;51.82
47883;BME280;37739;50.350;7.578;2022-07-23T08:25:25;99989.66;;;23.10;52.07
47883;BME280;37739;50.350;7.578;2022-07-23T08:27:51;99995.72;;;23.10;52.30
47883;BME280;37739;50.350;7.578;2022-07-23T08:30:17;99995.09;;;22.88;52.03
47883;BME280;37739;50.350;7.578;2022-07-23T08:32:52;100008.38;;;22.65;52.18
47883;BME280;37739;50.350;7.578;2022-07-23T08:35:34;100011.78;;;22.72;52.57
47883;BME280;37739;50.350;7.578;2022-07-23T08:38:09;100003.03;;;22.76;52.41
47883;BME280;37739;50.350;7.578;2022-07-23T08:40:36;100006.56;;;22.73;51.55
47883;BME280;37739;50.350;7.578;2022-07-23T08:43:09;100015.28;;;22.71;52.06
47883;BME280;37739;50.350;7.578;2022-07-23T08:45:45;100016.25;;;22.62;51.85
47883;BME280;37739;50.350;7.578;2022-07-23T08:48:20;100019.63;;;22.75;52.29
47883;BME280;37739;50.350;7.578;2022-07-23T08:50:52;100014.97;;;23.05;51.64
47883;BME280;37739;50.350;7.578;2022-07-23T08:53:20;100013.94;;;23.21;51.31
47883;BME280;37739;50.350;7.578;2022-07-23T08:55:49;100021.63;;;23.35;51.12
47883;BME280;37739;50.350;7.578;2022-07-23T08:58:18;100017.88;;;23.56;50.41
47883;BME280;37739;50.350;7.578;2022-07-23T09:00:44;100018.66;;;23.63;50.02
47883;BME280;37739;50.350;7.578;2022-07-23T09:03:19;100020.28;;;23.73;50.19
47883;BME280;37739;50.350;7.578;2022-07-23T09:05:49;100025.72;;;23.58;50.17
47883;BME280;37739;50.350;7.578;2022-07-23T09:08:18;100026.81;;;23.40;49.51
47883;BME280;37739;50.350;7.578;2022-07-23T09:10:57;100023.50;;;23.22;50.40
47883;BME280;37739;50.350;7.578;2022-07-23T09:15:50;100020.00;;;23.95;48.44
47883;BME280;37739;50.350;7.578;2022-07-23T09:18:16;100013.88;;;23.96;48.73
47883;BME280;37739;50.350;7.578;2022-07-23T09:20:42;100011.69;;;24.27;48.18
47883;BME280;37739;50.350;7.578;2022-07-23T09:23:08;100004.94;;;24.63;46.51
47883;BME280;37739;50.350;7.578;2022-07-23T09:25:33;100009.66;;;24.94;46.87
47883;BME280;37739;50.350;7.578;2022-07-23T09:28:02;100011.97;;;25.11;45.59
47883;BME280;37739;50.350;7.578;2022-07-23T09:30:29;100013.88;;;25.03;46.50
47883;BME280;37739;50.350;7.578;2022-07-23T09:33:13;100013.47;;;24.76;45.50
47883;BME280;37739;50.350;7.578;2022-07-23T09:35:51;100010.78;;;24.81;46.06
47883;BME280;37739;50.350;7.578;2022-07-23T09:38:19;100009.59;;;24.97;45.25
47883;BME280;37739;50.350;7.578;2022-07-23T09:40:45;100015.00;;;24.89;43.32
47883;BME280;37739;50.350;7.578;2022-07-23T09:43:12;100022.31;;;24.72;43.40
47883;BME280;37739;50.350;7.578;2022-07-23T09:46:22;100018.56;;;24.85;43.09
47883;BME280;37739;50.350;7.578;2022-07-23T09:48:50;100012.34;;;25.38;43.26
47883;BME280;37739;50.350;7.578;2022-07-23T09:51:17;100026.59;;;25.68;42.21
47883;BME280;37739;50.350;7.578;2022-07-23T09:54:01;100016.50;;;25.48;40.75
47883;BME280;37739;50.350;7.578;2022-07-23T09:56:27;100024.31;;;25.51;41.70
47883;BME280;37739;50.350;7.578;2022-07-23T09:58:56;100029.03;;;25.77;41.30
47883;BME280;37739;50.350;7.578;2022-07-23T10:01:38;100022.22;;;26.08;41.64
47883;BME280;37739;50.350;7.578;2022-07-23T10:04:09;100027.19;;;26.21;40.77
47883;BME280;37739;50.350;7.578;2022-07-23T10:06:36;100020.78;;;26.33;40.30
47883;BME280;37739;50.350;7.578;2022-07-23T10:09:03;100025.50;;;26.17;40.15
47883;BME280;37739;50.350;7.578;2022-07-23T10:11:28;100019.50;;;26.48;40.23
47883;BME280;37739;50.350;7.578;2022-07-23T10:14:03;100013.22;;;26.90;38.97
47883;BME280;37739;50.350;7.578;2022-07-23T10:16:31;100016.09;;;27.12;38.18
47883;BME280;37739;50.350;7.578;2022-07-23T10:18:59;100010.78;;;27.15;38.86
47883;BME280;37739;50.350;7.578;2022-07-23T10:21:37;100003.75;;;27.47;37.93
47883;BME280;37739;50.350;7.578;2022-07-23T10:24:16;100004.31;;;27.27;37.58
47883;BME280;37739;50.350;7.578;2022-07-23T10:32:22;100000.78;;;27.28;37.68
47883;BME280;37739;50.350;7.578;2022-07-23T10:35:17;99996.03;;;27.70;36.65
47883;BME280;37739;50.350;7.578;2022-07-23T10:37:49;99991.59;;;27.71;35.60
47883;BME280;37739;50.350;7.578;2022-07-23T10:40:17;99994.72;;;27.55;36.75
47883;BME280;37739;50.350;7.578;2022-07-23T10:42:43;99993.84;;;28.13;36.55
47883;BME280;37739;50.350;7.578;2022-07-23T10:45:26;99988.03;;;28.56;34.77
47883;BME280;37739;50.350;7.578;2022-07-23T10:48:12;99986.88;;;28.64;35.19
47883;BME280;37739;50.350;7.578;2022-07-23T10:50:38;99986.44;;;28.24;35.10
47883;BME280;37739;50.350;7.578;2022-07-23T10:58:05;99975.22;;;28.71;33.58
47883;BME280;37739;50.350;7.578;2022-07-23T11:00:32;99974.34;;;28.70;33.77
47883;BME280;37739;50.350;7.578;2022-07-23T11:03:02;99973.34;;;28.98;34.27
47883;BME280;37739;50.350;7.578;2022-07-23T11:05:45;99976.91;;;29.22;31.84
47883;BME280;37739;50.350;7.578;2022-07-23T11:08:20;99979.38;;;29.27;32.11
47883;BME280;37739;50.350;7.578;2022-07-23T11:11:07;99982.84;;;29.52;31.44
47883;BME280;37739;50.350;7.578;2022-07-23T11:13:46;99989.75;;;29.79;31.17
47883;BME280;37739;50.350;7.578;2022-07-23T11:16:14;99979.94;;;29.82;31.76
47883;BME280;37739;50.350;7.578;2022-07-23T11:24:06;99975.41;;;29.15;31.58
47883;BME280;37739;50.350;7.578;2022-07-23T11:36:59;99974.94;;;29.97;32.11
47883;BME280;37739;50.350;7.578;2022-07-23T11:39:26;99972.16;;;30.44;31.95
47883;BME280;37739;50.350;7.578;2022-07-23T11:41:52;99965.56;;;30.10;31.59
47883;BME280;37739;50.350;7.578;2022-07-23T11:44:32;99973.91;;;29.79;30.90
47883;BME280;37739;50.350;7.578;2022-07-23T11:46:59;99979.50;;;29.93;32.25
47883;BME280;37739;50.350;7.578;2022-07-23T11:49:25;99968.47;;;30.04;32.35
47883;BME280;37739;50.350;7.578;2022-07-23T11:54:31;99973.28;;;30.16;32.28
47883;BME280;37739;50.350;7.578;2022-07-23T11:57:00;99975.06;;;30.79;31.62
47883;BME280;37739;50.350;7.578;2022-07-23T11:59:27;99965.84;;;31.08;30.95
47883;BME280;37739;50.350;7.578;2022-07-23T12:02:03;99962.50;;;30.63;30.67
47883;BME280;37739;50.350;7.578;2022-07-23T12:07:25;99966.78;;;30.66;31.61
47883;BME280;37739;50.350;7.578;2022-07-23T12:09:54;99973.81;;;30.67;31.27
47883;BME280;37739;50.350;7.578;2022-07-23T12:12:26;99968.72;;;30.62;30.62
47883;BME280;37739;50.350;7.578;2022-07-23T12:14:57;99966.13;;;30.61;31.06
47883;BME280;37739;50.350;7.578;2022-07-23T12:17:29;99965.59;;;30.73;30.84
47883;BME280;37739;50.350;7.578;2022-07-23T12:19:58;99973.69;;;30.49;30.61
47883;BME280;37739;50.350;7.578;2022-07-23T12:22:25;99971.63;;;30.77;31.04
47883;BME280;37739;50.350;7.578;2022-07-23T12:25:00;99960.41;;;31.11;29.29
47883;BME280;37739;50.350;7.578;2022-07-23T12:27:28;99960.00;;;31.20;29.27
47883;BME280;37739;50.350;7.578;2022-07-23T12:29:54;99964.84;;;31.10;30.87
47883;BME280;37739;50.350;7.578;2022-07-23T12:32:23;99964.34;;;31.21;29.87
47883;BME280;37739;50.350;7.578;2022-07-23T12:35:06;99964.28;;;31.42;29.48
47883;BME280;37739;50.350;7.578;2022-07-23T12:37:32;99965.19;;;31.61;29.88
47883;BME280;37739;50.350;7.578;2022-07-23T12:40:03;99963.75;;;32.27;29.67
47883;BME280;37739;50.350;7.578;2022-07-23T12:42:46;99966.31;;;31.75;28.58
47883;BME280;37739;50.350;7.578;2022-07-23T12:45:12;99962.91;;;32.09;29.92
47883;BME280;37739;50.350;7.578;2022-07-23T12:47:58;99960.44;;;32.04;28.84
47883;BME280;37739;50.350;7.578;2022-07-23T12:50:44;99970.03;;;31.70;29.04
47883;BME280;37739;50.350;7.578;2022-07-23T12:53:25;99970.69;;;31.38;29.69
47883;BME280;37739;50.350;7.578;2022-07-23T12:55:59;99963.63;;;31.18;30.05
47883;BME280;37739;50.350;7.578;2022-07-23T12:58:39;99962.72;;;31.19;29.75
47883;BME280;37739;50.350;7.578;2022-07-23T13:01:05;99966.72;;;31.84;29.33
47883;BME280;37739;50.350;7.578;2022-07-23T13:03:34;99969.53;;;31.99;29.16
47883;BME280;37739;50.350;7.578;2022-07-23T13:06:01;99962.06;;;32.08;28.56
47883;BME280;37739;50.350;7.578;2022-07-23T13:08:28;99964.06;;;31.84;29.29
47883;BME280;37739;50.350;7.578;2022-07-23T13:10:54;99969.75;;;31.77;29.06
47883;BME280;37739;50.350;7.578;2022-07-23T13:13:24;99966.88;;;31.99;28.50
47883;BME280;37739;50.350;7.578;2022-07-23T13:15:52;99969.84;;;32.46;28.47
47883;BME280;37739;50.350;7.578;2022-07-23T13:18:19;99965.88;;;32.20;28.00
47883;BME280;37739;50.350;7.578;2022-07-23T13:20:48;99971.00;;;32.23;27.65
47883;BME280;37739;50.350;7.578;2022-07-23T13:23:16;99970.56;;;32.50;26.90
47883;BME280;37739;50.350;7.578;2022-07-23T13:25:42;99969.66;;;32.69;26.80
47883;BME280;37739;50.350;7.578;2022-07-23T13:28:10;99969.72;;;33.18;26.77
47883;BME280;37739;50.350;7.578;2022-07-23T13:30:35;99972.41;;;33.50;26.13
47883;BME280;37739;50.350;7.578;2022-07-23T13:33:03;99970.78;;;33.47;25.73
47883;BME280;37739;50.350;7.578;2022-07-23T13:35:29;99973.44;;;33.47;26.32
47883;BME280;37739;50.350;7.578;2022-07-23T13:37:54;99962.13;;;33.43;26.14
47883;BME280;37739;50.350;7.578;2022-07-23T13:40:20;99966.53;;;33.76;24.85